Time;durP1;ratioP1;P1;durP2;ratioP2;P2;SDS_P1;SDS_P2;PMS_P1;PMS_P2;Temp;Humidity;BMP_temperature;BMP_pressure;BME280_temperature;BME280_humidity;BME280_pressure;Samples;Min_cycle;Max_cycle;Signal;HPM_P1;HPM_P2
2024/01/12 00:00:50;;;;;;;15.60;7.30;;;;;;;-4.42;59.03;101520.97;10517896;28;20043;-63
2024/01/12 00:05:51;;;;;;;18.83;7.50;;;;;;;-4.46;59.25;101534.47;10526048;28;20090;-63
2024/01/12 00:10:54;;;;;;;17.83;7.55;;;;;;;-4.33;59.52;101538.22;10521885;28;20385;-63
2024/01/12 00:15:56;;;;;;;17.13;7.95;;;;;;;-4.12;59.11;101533.66;10527414;28;20551;-64
2024/01/12 00:20:58;;;;;;;16.63;6.82;;;;;;;-3.97;59.10;101532.34;10511192;28;20051;-63
2024/01/12 00:26:00;;;;;;;13.13;6.18;;;;;;;-3.96;58.91;101538.31;10525092;28;20052;-63
2024/01/12 00:31:02;;;;;;;15.70;5.95;;;;;;;-3.89;58.97;101533.41;10531325;28;20036;-64
2024/01/12 00:36:05;;;;;;;11.35;6.40;;;;;;;-3.73;58.99;101525.25;10532475;28;20071;-64
2024/01/12 00:41:07;;;;;;;17.13;7.03;;;;;;;-3.55;58.70;101529.94;10524599;28;20052;-63
2024/01/12 00:46:09;;;;;;;14.73;6.57;;;;;;;-3.42;58.50;101525.94;10528238;28;20101;-64
2024/01/12 00:51:11;;;;;;;17.38;7.97;;;;;;;-3.37;58.32;101516.69;10525714;28;20134;-63
2024/01/12 00:56:17;;;;;;;18.48;7.65;;;;;;;-3.40;58.32;101512.38;10508826;28;20519;-64
2024/01/12 01:01:20;;;;;;;14.57;7.45;;;;;;;-3.20;58.31;101500.84;10524939;28;20653;-63
2024/01/12 01:06:22;;;;;;;14.38;7.00;;;;;;;-3.22;58.20;101506.78;10523925;28;20050;-63
2024/01/12 01:11:24;;;;;;;14.85;6.18;;;;;;;-3.20;57.88;101512.81;10524097;28;20048;-64
2024/01/12 01:16:26;;;;;;;16.52;6.97;;;;;;;-3.13;58.14;101527.44;10509115;28;20039;-63
2024/01/12 01:21:29;;;;;;;13.20;6.28;;;;;;;-2.95;58.02;101522.69;10523547;28;20072;-63
2024/01/12 01:26:31;;;;;;;14.43;5.78;;;;;;;-2.88;57.74;101524.56;10525935;28;20123;-63
2024/01/12 01:31:33;;;;;;;12.18;6.13;;;;;;;-2.76;57.67;101514.56;10523650;28;20052;-63
2024/01/12 01:36:35;;;;;;;16.98;6.90;;;;;;;-2.76;57.53;101513.69;10492749;28;20279;-64
2024/01/12 01:41:37;;;;;;;12.02;6.15;;;;;;;-2.77;57.66;101509.41;10526812;28;20151;-63
2024/01/12 01:46:39;;;;;;;20.27;7.63;;;;;;;-2.64;57.77;101516.47;10506957;28;20040;-63
2024/01/12 01:51:41;;;;;;;18.33;8.20;;;;;;;-2.65;57.68;101525.00;10521815;28;20055;-63
2024/01/12 01:56:43;;;;;;;12.00;6.53;;;;;;;-2.56;57.45;101525.16;10537729;27;20047;-64
2024/01/12 02:01:46;;;;;;;16.27;6.32;;;;;;;-2.47;57.45;101520.22;10506639;28;20051;-64
2024/01/12 02:06:47;;;;;;;15.68;6.93;;;;;;;-2.43;57.11;101517.75;10521581;28;20052;-63
2024/01/12 02:11:50;;;;;;;19.80;8.07;;;;;;;-2.46;57.36;101521.94;10503206;28;20052;-63
2024/01/12 02:16:52;;;;;;;13.05;6.13;;;;;;;-2.40;57.33;101512.66;10521392;28;20093;-63
2024/01/12 02:21:54;;;;;;;19.27;6.57;;;;;;;-2.35;57.24;101505.94;10521072;28;20063;-63
2024/01/12 02:26:56;;;;;;;16.23;7.10;;;;;;;-2.36;57.20;101504.19;10518235;28;20043;-63
2024/01/12 02:31:58;;;;;;;14.90;6.78;;;;;;;-2.41;57.31;101502.41;10521048;28;20055;-63
2024/01/12 02:37:00;;;;;;;13.90;6.78;;;;;;;-2.37;57.20;101494.78;10521170;28;20040;-63
2024/01/12 02:42:02;;;;;;;18.48;7.38;;;;;;;-2.37;57.29;101489.66;10518154;28;20754;-63
2024/01/12 02:47:06;;;;;;;13.60;6.95;;;;;;;-2.42;57.46;101491.28;10527943;28;20134;-64
2024/01/12 02:52:08;;;;;;;15.18;7.05;;;;;;;-2.28;57.29;101491.50;10520071;28;20043;-64
2024/01/12 02:57:11;;;;;;;14.85;7.05;;;;;;;-2.17;57.19;101498.56;10523224;28;20214;-64
2024/01/12 03:02:14;;;;;;;17.05;6.95;;;;;;;-2.19;57.13;101497.66;10518985;28;20043;-63
2024/01/12 03:07:16;;;;;;;19.30;6.85;;;;;;;-2.15;57.15;101504.56;10522148;28;20151;-64
2024/01/12 03:12:18;;;;;;;15.00;6.35;;;;;;;-2.06;57.20;101496.13;10518944;28;20047;-64
2024/01/12 03:17:20;;;;;;;20.67;6.43;;;;;;;-2.03;57.05;101504.78;10501183;28;20047;-64
2024/01/12 03:22:22;;;;;;;15.55;6.72;;;;;;;-1.98;56.96;101503.13;10519035;28;20036;-63
2024/01/12 03:27:24;;;;;;;15.18;6.32;;;;;;;-1.98;56.92;101492.03;10524521;28;20158;-64
2024/01/12 03:32:26;;;;;;;15.02;5.82;;;;;;;-1.93;57.04;101484.38;10519378;28;20040;-64
2024/01/12 03:37:29;;;;;;;12.55;6.38;;;;;;;-1.80;56.86;101486.31;10503562;28;20157;-64
2024/01/12 03:42:31;;;;;;;15.38;6.95;;;;;;;-1.75;56.87;101484.66;10518278;28;20051;-64
2024/01/12 03:47:33;;;;;;;13.10;6.25;;;;;;;-1.67;56.79;101494.19;10517258;28;20485;-64
2024/01/12 03:52:35;;;;;;;13.00;5.63;;;;;;;-1.67;56.48;101490.75;10518402;28;20582;-64
2024/01/12 03:57:37;;;;;;;10.55;5.65;;;;;;;-1.70;56.52;101488.16;10503712;28;20100;-64
2024/01/12 04:02:39;;;;;;;20.90;7.50;;;;;;;-1.69;56.59;101484.75;10522716;28;20788;-64
2024/01/12 04:07:41;;;;;;;15.13;5.85;;;;;;;-1.62;56.64;101494.28;10517504;28;20036;-64
2024/01/12 04:12:43;;;;;;;13.70;6.18;;;;;;;-1.54;56.25;101495.25;10516681;28;20047;-64
2024/01/12 04:17:45;;;;;;;13.68;6.25;;;;;;;-1.63;56.55;101507.91;10517780;28;20079;-64
2024/01/12 04:22:47;;;;;;;11.63;5.18;;;;;;;-1.70;56.78;101499.28;10498361;28;20046;-64
2024/01/12 04:27:49;;;;;;;11.25;5.43;;;;;;;-1.72;56.64;101494.97;10522770;28;20044;-64
2024/01/12 04:32:53;;;;;;;12.80;5.28;;;;;;;-1.89;57.36;101494.72;10520203;28;20058;-64
2024/01/12 04:37:55;;;;;;;12.65;5.40;;;;;;;-1.82;57.42;101496.56;10499203;28;20052;-64
2024/01/12 04:42:57;;;;;;;9.70;4.82;;;;;;;-1.64;57.24;101488.25;10516248;28;20086;-64
2024/01/12 04:47:58;;;;;;;13.07;4.57;;;;;;;-1.62;57.07;101489.13;10518322;28;20131;-64
2024/01/12 04:53:01;;;;;;;12.20;4.40;;;;;;;-1.72;57.06;101500.09;10518441;28;20488;-64
2024/01/12 04:58:03;;;;;;;11.07;4.45;;;;;;;-1.84;57.28;101497.38;10518488;28;20126;-65
2024/01/12 05:03:05;;;;;;;8.10;3.75;;;;;;;-2.04;57.63;101499.59;10520285;28;20036;-64
2024/01/12 05:08:07;;;;;;;7.35;4.07;;;;;;;-2.14;58.14;101500.28;10525110;28;20503;-64
2024/01/12 05:13:09;;;;;;;7.43;4.22;;;;;;;-2.15;58.02;101496.00;10523052;28;20314;-64
2024/01/12 05:18:11;;;;;;;7.55;3.38;;;;;;;-2.28;58.50;101483.81;10523139;28;20127;-64
2024/01/12 05:23:13;;;;;;;7.88;4.00;;;;;;;-2.24;58.55;101483.91;10522715;28;20160;-64
2024/01/12 05:28:15;;;;;;;9.13;3.88;;;;;;;-2.22;58.62;101477.09;10524567;28;20551;-63
2024/01/12 05:33:17;;;;;;;8.70;3.67;;;;;;;-2.22;58.99;101476.22;10528339;28;20311;-65
2024/01/12 05:38:20;;;;;;;9.73;4.05;;;;;;;-2.14;59.24;101478.09;10504303;28;20052;-64
2024/01/12 05:43:22;;;;;;;11.40;4.57;;;;;;;-2.02;59.31;101468.03;10527715;28;20044;-64
2024/01/12 05:48:23;;;;;;;9.38;4.78;;;;;;;-1.88;59.09;101472.50;10537481;28;20109;-64
2024/01/12 05:53:26;;;;;;;8.23;4.93;;;;;;;-1.85;59.29;101475.97;10526325;28;20047;-65
2024/01/12 05:58:29;;;;;;;9.35;4.18;;;;;;;-1.83;59.67;101471.72;10508846;28;20508;-65
2024/01/12 06:03:31;;;;;;;10.07;4.93;;;;;;;-1.68;59.52;101471.97;10509093;28;20044;-64
2024/01/12 06:08:33;;;;;;;8.25;4.20;;;;;;;-1.61;59.33;101473.75;10526733;28;20043;-64
2024/01/12 06:13:35;;;;;;;12.45;4.45;;;;;;;-1.52;59.29;101491.00;10506798;28;20514;-64
2024/01/12 06:18:37;;;;;;;11.90;4.88;;;;;;;-1.42;59.33;101496.28;10542234;27;20331;-64
2024/01/12 06:23:40;;;;;;;8.23;3.70;;;;;;;-1.37;59.33;101488.66;10523450;28;20060;-64
2024/01/12 06:28:42;;;;;;;12.45;5.53;;;;;;;-1.34;59.43;101493.81;10520008;28;20501;-65
2024/01/12 06:33:44;;;;;;;8.02;4.22;;;;;;;-1.30;59.57;101488.75;10522852;28;20083;-65
2024/01/12 06:38:46;;;;;;;14.63;4.93;;;;;;;-1.24;59.53;101483.69;10525793;28;20680;-65
2024/01/12 06:43:48;;;;;;;12.65;4.88;;;;;;;-1.18;59.30;101496.59;10519927;28;20063;-64
2024/01/12 06:48:50;;;;;;;13.35;5.07;;;;;;;-1.21;59.53;101505.97;10520488;28;20036;-64
2024/01/12 06:53:52;;;;;;;14.75;6.07;;;;;;;-1.15;59.47;101511.19;10501646;28;20101;-64
2024/01/12 06:58:54;;;;;;;11.88;5.28;;;;;;;-1.16;59.51;101517.13;10519806;28;20051;-64
2024/01/12 07:03:56;;;;;;;12.50;5.15;;;;;;;-1.16;59.57;101522.28;10515637;27;20393;-64
2024/01/12 07:08:58;;;;;;;14.82;5.97;;;;;;;-1.16;59.51;101519.69;10518951;28;20055;-64
2024/01/12 07:14:00;;;;;;;12.60;5.72;;;;;;;-1.16;59.54;101520.56;10494818;28;20058;-64
2024/01/12 07:19:02;;;;;;;14.40;6.50;;;;;;;-1.13;59.64;101524.03;10522151;28;20043;-64
2024/01/12 07:24:05;;;;;;;13.40;6.00;;;;;;;-1.08;59.77;101512.13;10500051;28;20116;-64
2024/01/12 07:29:08;;;;;;;13.32;5.47;;;;;;;-1.22;59.69;101517.94;10502682;28;20536;-63
2024/01/12 07:34:13;;;;;;;15.60;6.88;;;;;;;-1.11;59.89;101515.50;10500906;28;20135;-64
2024/01/12 07:39:21;;;;;;;14.30;5.45;;;;;;;-1.02;59.83;101515.59;10513353;27;20085;-64
2024/01/12 07:45:03;;;;;;;15.98;6.43;;;;;;;-1.03;59.97;101521.59;10519381;28;20048;-64
2024/01/12 07:50:10;;;;;;;11.82;5.90;;;;;;;-0.97;59.72;101506.25;10500491;28;20044;-64
2024/01/12 07:55:18;;;;;;;12.07;5.65;;;;;;;-0.95;59.85;101519.13;10500350;28;20047;-64
2024/01/12 08:00:30;;;;;;;12.98;6.28;;;;;;;-0.88;59.94;101515.78;10499573;28;20056;-64
2024/01/12 08:05:35;;;;;;;18.30;7.97;;;;;;;-0.92;59.95;101511.47;10519113;28;20520;-64
2024/01/12 08:10:37;;;;;;;12.30;6.47;;;;;;;-0.82;59.78;101515.88;10515493;28;20038;-63
2024/01/12 08:15:58;;;;;;;13.35;5.25;;;;;;;-0.76;59.71;101511.63;10515173;28;20455;-64
2024/01/12 08:21:00;;;;;;;13.60;6.28;;;;;;;-0.73;59.74;101521.94;10513611;28;20044;-64
2024/01/12 08:26:02;;;;;;;17.95;6.72;;;;;;;-0.62;59.73;101522.94;10479521;28;20438;-64
2024/01/12 08:31:04;;;;;;;18.50;7.13;;;;;;;-0.63;59.88;101523.78;10513300;28;20043;-64
2024/01/12 08:36:07;;;;;;;13.02;5.75;;;;;;;-0.60;59.88;101520.38;10513090;28;20078;-64
2024/01/12 08:41:27;;;;;;;14.43;7.40;;;;;;;-0.62;60.11;101515.25;10523376;27;21007;-64
2024/01/12 08:46:29;;;;;;;16.38;6.57;;;;;;;-0.55;60.00;101532.44;10521834;28;20086;-64
2024/01/12 08:51:31;;;;;;;22.20;6.15;;;;;;;-0.44;59.81;101529.97;10521958;28;20427;-64
2024/01/12 08:56:33;;;;;;;14.60;6.15;;;;;;;-0.39;59.77;101529.16;10523462;28;20223;-63
2024/01/12 09:01:35;;;;;;;13.98;6.93;;;;;;;-0.40;59.77;101522.31;10521895;28;20139;-64
2024/01/12 09:06:37;;;;;;;17.77;6.10;;;;;;;-0.32;59.70;101528.41;10521486;28;20067;-64
2024/01/12 09:11:40;;;;;;;17.20;6.45;;;;;;;-0.29;59.92;101530.09;10522288;28;20054;-64
2024/01/12 09:16:42;;;;;;;15.55;7.05;;;;;;;-0.24;59.77;101523.31;10517564;28;20105;-64
2024/01/12 09:21:44;;;;;;;19.60;6.53;;;;;;;-0.25;59.90;101519.03;10501766;28;20561;-64
2024/01/12 09:26:46;;;;;;;14.77;6.55;;;;;;;-0.16;59.83;101531.97;10521237;28;20036;-63
2024/01/12 09:31:48;;;;;;;14.27;6.57;;;;;;;-0.15;59.81;101540.53;10525249;28;20535;-64
2024/01/12 09:36:50;;;;;;;16.25;7.38;;;;;;;-0.11;59.82;101535.44;10526776;28;20051;-63
2024/01/12 09:41:59;;;;;;;13.63;6.70;;;;;;;-0.08;59.87;101539.75;10527650;28;20127;-64
2024/01/12 09:47:01;;;;;;;11.98;5.43;;;;;;;0.06;59.55;101545.84;10526413;28;20051;-64
2024/01/12 09:52:07;;;;;;;12.77;5.43;;;;;;;0.17;59.41;101546.81;10525628;28;20139;-64
2024/01/12 09:57:11;;;;;;;15.07;6.13;;;;;;;0.16;59.65;101534.81;10521741;28;20123;-63
2024/01/12 10:02:15;;;;;;;16.17;7.55;;;;;;;0.13;59.92;101529.63;10504102;28;20050;-67
2024/01/12 10:07:17;;;;;;;16.70;6.93;;;;;;;0.16;59.84;101539.97;10524108;28;20047;-67
2024/01/12 10:12:19;;;;;;;17.75;6.70;;;;;;;0.18;59.89;101546.81;10521627;28;20051;-67
2024/01/12 10:17:21;;;;;;;26.50;9.18;;;;;;;0.35;59.54;101544.38;10521038;28;20169;-67
2024/01/12 10:22:23;;;;;;;18.52;8.50;;;;;;;0.32;59.60;101537.50;10522064;28;20473;-67
2024/01/12 10:27:26;;;;;;;15.20;6.75;;;;;;;0.43;59.55;101540.16;10522013;28;20361;-67
2024/01/12 10:32:28;;;;;;;12.63;5.10;;;;;;;0.48;59.39;101541.91;10520039;28;20051;-67
2024/01/12 10:37:31;;;;;;;15.27;6.32;;;;;;;0.44;59.43;101524.72;10522080;28;20059;-68
2024/01/12 10:42:34;;;;;;;12.25;5.65;;;;;;;0.41;59.45;101537.59;10535475;27;20242;-68
2024/01/12 10:47:40;;;;;;;16.70;6.57;;;;;;;0.26;59.76;101531.47;10520168;28;20143;-68
2024/01/12 10:52:54;;;;;;;14.98;4.93;;;;;;;0.27;59.97;101536.63;10518603;28;20069;-68
2024/01/12 10:57:57;;;;;;;7.18;3.75;;;;;;;0.32;59.73;101531.50;10519546;28;20076;-68
2024/01/12 11:03:02;;;;;;;7.72;3.70;;;;;;;0.44;59.79;101521.31;10505534;28;20071;-68
2024/01/12 11:08:09;;;;;;;6.65;3.45;;;;;;;0.47;59.72;101523.88;10523905;28;20040;-68
2024/01/12 11:13:14;;;;;;;6.10;2.67;;;;;;;0.57;59.28;101499.91;10518085;28;20090;-68
2024/01/12 11:18:16;;;;;;;7.35;3.80;;;;;;;0.61;59.33;101498.25;10516565;28;20452;-68
2024/01/12 11:23:18;;;;;;;8.38;3.65;;;;;;;0.64;59.35;101493.09;10503057;28;20051;-68
2024/01/12 11:28:20;;;;;;;5.78;3.25;;;;;;;0.54;59.68;101475.00;10520833;28;20040;-68
2024/01/12 11:33:25;;;;;;;6.93;3.17;;;;;;;0.60;59.48;101468.19;10517986;28;20397;-68
2024/01/12 11:38:38;;;;;;;6.00;3.15;;;;;;;0.49;59.82;101465.56;10502134;28;20044;-68
2024/01/12 11:43:48;;;;;;;8.07;3.53;;;;;;;0.58;59.56;101467.31;10518899;28;20036;-68
2024/01/12 11:48:51;;;;;;;7.07;3.53;;;;;;;0.59;59.56;101459.59;10517444;28;20063;-68
2024/01/12 11:53:58;;;;;;;7.25;3.13;;;;;;;0.70;59.38;101447.66;10505250;28;20055;-68
2024/01/12 11:59:00;;;;;;;8.45;2.92;;;;;;;0.58;59.68;101451.88;10518214;28;20142;-68
2024/01/12 12:04:02;;;;;;;8.68;3.90;;;;;;;0.68;59.67;101433.03;10517304;28;20044;-68
2024/01/12 12:09:05;;;;;;;8.60;3.35;;;;;;;0.73;59.48;101437.34;10523567;28;20056;-68
2024/01/12 12:14:08;;;;;;;7.78;3.83;;;;;;;0.67;59.66;101444.22;10503259;28;20146;-68
2024/01/12 12:19:10;;;;;;;6.32;3.03;;;;;;;0.62;59.89;101425.28;10526344;28;20094;-68
2024/01/12 12:24:12;;;;;;;5.93;2.67;;;;;;;0.66;60.04;101430.47;10522559;28;20048;-68
2024/01/12 12:29:18;;;;;;;6.90;3.30;;;;;;;0.55;60.14;101421.81;10523610;28;20047;-68
2024/01/12 12:34:20;;;;;;;7.18;2.90;;;;;;;0.51;60.23;101425.25;10524476;28;20040;-69
2024/01/12 12:39:23;;;;;;;9.23;3.42;;;;;;;0.55;60.25;101421.81;10525913;28;20055;-68
2024/01/12 12:44:25;;;;;;;6.57;3.20;;;;;;;0.65;60.12;101410.72;10527538;28;20454;-69
2024/01/12 12:49:42;;;;;;;7.15;3.15;;;;;;;0.57;60.40;101399.53;10522474;28;20292;-68
2024/01/12 12:54:44;;;;;;;6.68;3.08;;;;;;;0.64;60.32;101405.56;10522819;28;20048;-68
2024/01/12 12:59:46;;;;;;;4.82;2.67;;;;;;;0.60;60.08;101409.84;10522655;28;20044;-68
2024/01/12 13:04:49;;;;;;;8.77;3.30;;;;;;;0.64;60.20;101400.41;10521858;27;20125;-68
2024/01/12 13:09:52;;;;;;;7.63;3.17;;;;;;;0.55;60.26;101396.09;10520836;28;20044;-68
2024/01/12 13:14:58;;;;;;;7.47;3.75;;;;;;;0.41;60.66;101398.59;10506089;27;20056;-68
2024/01/12 13:20:03;;;;;;;6.72;3.22;;;;;;;0.34;60.82;101399.41;10501338;28;20043;-68
2024/01/12 13:25:06;;;;;;;7.00;3.50;;;;;;;0.28;61.07;101386.53;10520671;28;20199;-68
2024/01/12 13:30:09;;;;;;;8.65;3.47;;;;;;;0.28;61.15;101378.81;10521616;28;20472;-68
2024/01/12 13:35:11;;;;;;;7.38;3.25;;;;;;;0.42;60.68;101371.16;10522928;27;20506;-68
2024/01/12 13:40:14;;;;;;;8.85;3.35;;;;;;;0.31;61.09;101360.81;10521671;28;20450;-68
2024/01/12 13:45:16;;;;;;;6.45;3.25;;;;;;;0.35;61.10;101346.25;10522373;27;20134;-68
2024/01/12 13:50:19;;;;;;;6.97;3.20;;;;;;;0.31;61.32;101341.94;10520823;27;20040;-68
2024/01/12 13:55:21;;;;;;;6.32;3.08;;;;;;;0.22;61.27;101340.19;10526213;27;20040;-68
2024/01/12 14:00:23;;;;;;;9.88;3.50;;;;;;;0.19;61.62;101344.47;10518820;28;20048;-68
2024/01/12 14:05:25;;;;;;;6.45;2.58;;;;;;;0.02;62.06;101335.78;10528912;28;20044;-68
2024/01/12 14:10:27;;;;;;;7.93;3.03;;;;;;;0.08;62.04;101328.97;10518427;28;20410;-68
2024/01/12 14:15:30;;;;;;;8.73;2.78;;;;;;;0.32;61.42;101336.78;10520273;28;20507;-68
2024/01/12 14:20:33;;;;;;;15.70;5.03;;;;;;;0.48;61.20;101354.00;10522355;28;20119;-68
2024/01/12 14:25:35;;;;;;;7.53;3.53;;;;;;;0.37;61.35;101368.56;10520225;28;20038;-68
2024/01/12 14:30:37;;;;;;;7.78;2.67;;;;;;;0.34;61.53;101370.28;10519496;28;20138;-68
2024/01/12 14:35:39;;;;;;;6.63;2.85;;;;;;;0.37;61.36;101380.56;10520083;28;20044;-68
2024/01/12 14:40:41;;;;;;;7.57;3.13;;;;;;;0.44;61.30;101366.88;10499488;28;20043;-68
2024/01/12 14:45:43;;;;;;;9.20;3.65;;;;;;;0.40;61.29;101372.88;10517669;28;20452;-68
2024/01/12 14:50:48;;;;;;;6.72;2.92;;;;;;;0.42;61.34;101377.16;10517539;28;20039;-68
2024/01/12 14:55:50;;;;;;;5.53;2.75;;;;;;;0.36;61.38;101368.56;10514766;27;20050;-68
2024/01/12 15:00:52;;;;;;;6.45;3.22;;;;;;;0.46;61.26;101375.47;10518095;28;20036;-68
2024/01/12 15:05:55;;;;;;;7.47;2.78;;;;;;;0.47;61.23;101377.19;10516475;28;20044;-68
2024/01/12 15:10:58;;;;;;;4.88;2.45;;;;;;;0.32;61.61;101377.13;10522185;28;20401;-68
2024/01/12 15:16:01;;;;;;;6.40;3.15;;;;;;;0.27;61.89;101379.69;10517712;28;20055;-68
2024/01/12 15:21:03;;;;;;;5.50;2.85;;;;;;;0.29;61.79;101385.69;10519427;28;20135;-68
2024/01/12 15:26:08;;;;;;;7.07;3.40;;;;;;;0.30;61.98;101389.13;10521457;28;20058;-68
2024/01/12 15:31:13;;;;;;;4.70;2.42;;;;;;;0.38;61.55;101396.00;10522962;27;20491;-68
2024/01/12 15:36:15;;;;;;;5.80;2.92;;;;;;;0.37;61.59;101390.88;10490216;28;20056;-68
2024/01/12 15:41:17;;;;;;;6.07;2.65;;;;;;;0.47;61.59;101387.47;10520985;28;20046;-68
2024/01/12 15:46:19;;;;;;;5.18;2.80;;;;;;;0.62;61.36;101390.13;10525475;28;20047;-68
2024/01/12 15:51:21;;;;;;;8.32;3.50;;;;;;;0.65;61.44;101376.41;10517585;28;20294;-68
2024/01/12 15:56:23;;;;;;;5.75;2.53;;;;;;;0.65;61.44;101379.81;10522466;28;20134;-68
2024/01/12 16:01:25;;;;;;;7.93;3.75;;;;;;;0.67;61.49;101364.41;10518897;28;20117;-68
2024/01/12 16:06:27;;;;;;;9.95;4.13;;;;;;;0.65;61.55;101377.25;10501194;28;20135;-68
2024/01/12 16:11:31;;;;;;;5.40;3.53;;;;;;;0.66;61.40;101365.25;10520229;28;20633;-68
2024/01/12 16:16:33;;;;;;;7.80;3.63;;;;;;;0.60;61.60;101342.06;10520872;28;20051;-63
2024/01/12 16:21:35;;;;;;;7.40;3.38;;;;;;;0.44;61.73;101348.88;10516884;28;20052;-64
2024/01/12 16:26:38;;;;;;;7.80;3.80;;;;;;;0.39;61.97;101347.97;10499851;28;20086;-63
2024/01/12 16:31:41;;;;;;;8.10;3.58;;;;;;;0.23;62.39;101347.06;10518352;28;20059;-64
2024/01/12 16:36:43;;;;;;;8.80;3.90;;;;;;;0.14;63.04;101356.44;10514431;28;20044;-63
2024/01/12 16:41:46;;;;;;;8.05;3.60;;;;;;;0.15;62.86;101358.16;10516429;28;20059;-64
2024/01/12 16:46:48;;;;;;;8.25;4.38;;;;;;;0.15;63.00;101353.03;10515141;28;20059;-63
2024/01/12 16:51:50;;;;;;;9.10;3.80;;;;;;;0.19;62.99;101354.75;10513816;28;20048;-64
2024/01/12 16:56:52;;;;;;;8.38;4.05;;;;;;;0.08;62.99;101358.97;10515836;28;20058;-63
2024/01/12 17:01:54;;;;;;;8.80;3.92;;;;;;;0.20;63.02;101364.22;10502266;28;20052;-63
2024/01/12 17:06:59;;;;;;;12.38;4.22;;;;;;;0.18;63.01;101369.31;10505785;27;20412;-63
2024/01/12 17:12:01;;;;;;;13.25;4.00;;;;;;;0.20;62.97;101367.63;10520010;28;20302;-64
2024/01/12 17:17:04;;;;;;;9.25;4.32;;;;;;;0.37;62.79;101380.56;10520334;28;20068;-63
2024/01/12 17:22:20;;;;;;;6.85;3.75;;;;;;;0.51;62.52;101381.47;10535982;27;20170;-63
2024/01/12 17:27:22;;;;;;;7.57;3.90;;;;;;;0.46;62.39;101375.47;10519671;27;20048;-64
2024/01/12 17:32:27;;;;;;;9.02;3.55;;;;;;;0.46;62.64;101372.91;10523434;28;20143;-63
2024/01/12 17:37:30;;;;;;;10.98;4.22;;;;;;;0.32;62.90;101366.84;10520293;28;20048;-63
2024/01/12 17:42:32;;;;;;;10.77;4.65;;;;;;;0.16;63.26;101362.47;10518970;27;20052;-63
2024/01/12 17:47:34;;;;;;;11.32;4.90;;;;;;;0.09;63.38;101369.28;10525860;27;20059;-64
2024/01/12 17:52:37;;;;;;;8.85;4.07;;;;;;;0.31;63.09;101359.97;10518188;28;20047;-63
2024/01/12 17:57:39;;;;;;;12.48;4.07;;;;;;;0.35;62.90;101349.69;10522885;28;20186;-63
2024/01/12 18:02:41;;;;;;;9.23;4.38;;;;;;;0.27;63.08;101335.94;10521309;28;20039;-65
2024/01/12 18:07:43;;;;;;;8.38;3.83;;;;;;;0.36;63.00;101348.00;10518817;28;20481;-63
2024/01/12 18:12:45;;;;;;;9.50;4.53;;;;;;;0.45;62.89;101337.72;10520860;27;20135;-63
2024/01/12 18:17:47;;;;;;;18.98;6.68;;;;;;;0.43;62.56;101332.56;10518015;27;20044;-63
2024/01/12 18:22:50;;;;;;;22.35;8.80;;;;;;;0.21;62.99;101327.31;10505835;28;20039;-63
2024/01/12 18:27:52;;;;;;;11.32;4.68;;;;;;;0.26;63.18;101343.66;10537479;27;20535;-63
2024/01/12 18:32:54;;;;;;;9.85;4.18;;;;;;;0.31;63.00;101344.50;10523052;27;20131;-63
2024/01/12 18:37:56;;;;;;;9.82;3.90;;;;;;;0.13;63.34;101347.00;10517412;27;20087;-63
2024/01/12 18:42:58;;;;;;;12.15;4.32;;;;;;;0.19;63.17;101349.59;10520908;28;20054;-64
2024/01/12 18:48:00;;;;;;;7.55;3.20;;;;;;;0.34;63.01;101339.41;10520687;28;20059;-63
2024/01/12 18:53:03;;;;;;;9.27;4.03;;;;;;;0.35;62.92;101335.97;10521451;28;20059;-63
2024/01/12 18:58:05;;;;;;;9.88;4.15;;;;;;;0.29;63.01;101336.81;10520941;28;20047;-64
2024/01/12 19:03:07;;;;;;;8.45;3.95;;;;;;;0.22;63.12;101317.03;10516662;28;20528;-63
2024/01/12 19:08:10;;;;;;;9.50;3.97;;;;;;;0.15;63.20;101312.72;10520463;28;20052;-64
2024/01/12 19:13:12;;;;;;;9.95;4.13;;;;;;;0.22;63.46;101311.06;10522696;28;20570;-64
2024/01/12 19:18:14;;;;;;;9.98;4.60;;;;;;;0.29;63.25;101315.34;10531191;28;20563;-63
2024/01/12 19:23:18;;;;;;;10.93;4.72;;;;;;;0.28;63.41;101305.94;10518682;28;20119;-63
2024/01/12 19:28:21;;;;;;;10.57;4.68;;;;;;;0.29;63.36;101312.78;10530698;28;20046;-64
2024/01/12 19:33:22;;;;;;;7.40;4.32;;;;;;;0.30;63.47;101317.09;10529540;28;20158;-64
2024/01/12 19:38:25;;;;;;;9.30;4.43;;;;;;;0.28;63.46;101319.63;10536324;28;20059;-64
2024/01/12 19:43:28;;;;;;;12.23;4.72;;;;;;;0.36;63.48;101314.53;10539117;28;20427;-63
2024/01/12 19:48:30;;;;;;;8.18;4.07;;;;;;;0.49;63.09;101313.69;10535947;28;20052;-63
2024/01/12 19:53:32;;;;;;;9.55;4.78;;;;;;;0.61;62.93;101308.59;10526591;28;20059;-63
2024/01/12 19:58:35;;;;;;;15.75;5.30;;;;;;;0.67;62.78;101318.06;10536302;28;20051;-63
2024/01/12 20:03:38;;;;;;;12.45;5.70;;;;;;;0.59;62.86;101312.88;10528609;28;20124;-64
2024/01/12 20:08:40;;;;;;;13.13;4.63;;;;;;;0.59;63.11;101323.16;10534973;28;20047;-64
2024/01/12 20:13:42;;;;;;;13.13;5.15;;;;;;;0.69;62.88;101306.06;10519632;28;20577;-63
2024/01/12 20:18:45;;;;;;;12.73;5.82;;;;;;;0.60;63.01;101309.47;10532495;28;20518;-64
2024/01/12 20:23:47;;;;;;;13.10;5.07;;;;;;;0.69;62.91;101306.88;10529419;28;20052;-64
2024/01/12 20:28:49;;;;;;;14.68;5.13;;;;;;;0.62;63.10;101305.16;10534146;28;20043;-64
2024/01/12 20:33:51;;;;;;;11.73;4.70;;;;;;;0.57;63.06;101300.84;10530478;28;20389;-62
2024/01/12 20:38:54;;;;;;;14.02;5.40;;;;;;;0.70;63.03;101307.75;10544697;28;20117;-63
2024/01/12 20:43:56;;;;;;;15.10;6.18;;;;;;;0.78;62.82;101306.91;10543220;28;20039;-63
2024/01/12 20:48:58;;;;;;;13.85;6.22;;;;;;;0.80;62.70;101292.31;10543426;28;20178;-63
2024/01/12 20:54:00;;;;;;;9.80;4.75;;;;;;;0.86;62.59;101289.75;10520023;28;20659;-63
2024/01/12 20:59:03;;;;;;;17.05;6.05;;;;;;;0.77;62.78;101287.16;10536864;28;20227;-63
2024/01/12 21:04:05;;;;;;;11.10;5.28;;;;;;;0.67;63.01;101279.44;10523004;28;20504;-63
2024/01/12 21:09:11;;;;;;;15.73;5.68;;;;;;;0.65;63.29;101287.13;10519817;28;20047;-63
2024/01/12 21:14:13;;;;;;;12.82;5.40;;;;;;;0.81;62.91;101286.31;10526714;28;20056;-63
2024/01/12 21:19:15;;;;;;;10.45;5.75;;;;;;;0.89;62.50;101282.03;10523592;28;20044;-63
2024/01/12 21:24:17;;;;;;;10.82;4.75;;;;;;;0.98;62.43;101287.19;10522848;28;20188;-63
2024/01/12 21:29:20;;;;;;;14.18;5.20;;;;;;;1.03;62.47;101285.50;10524401;28;20473;-63
2024/01/12 21:34:22;;;;;;;12.70;5.80;;;;;;;1.07;62.29;101279.47;10522287;28;20463;-64
2024/01/12 21:39:24;;;;;;;13.48;4.70;;;;;;;0.96;62.32;101277.75;10522758;28;20067;-63
2024/01/12 21:44:26;;;;;;;11.05;4.82;;;;;;;0.93;62.46;101281.16;10521999;28;20051;-64
2024/01/12 21:49:28;;;;;;;13.93;5.05;;;;;;;0.91;62.59;101269.16;10504606;28;20032;-64
2024/01/12 21:54:30;;;;;;;13.95;5.20;;;;;;;0.88;62.51;101259.72;10521669;28;20036;-64
2024/01/12 21:59:32;;;;;;;11.40;4.85;;;;;;;0.83;62.63;101251.13;10522388;28;20355;-63
2024/01/12 22:04:34;;;;;;;13.57;5.88;;;;;;;0.82;62.64;101251.13;10527762;28;20044;-64
2024/01/12 22:09:36;;;;;;;14.05;6.00;;;;;;;0.87;62.52;101244.28;10525939;28;20076;-63
2024/01/12 22:14:38;;;;;;;13.77;4.60;;;;;;;0.91;62.68;101241.66;10521726;28;20097;-63
2024/01/12 22:19:40;;;;;;;11.60;4.93;;;;;;;0.98;62.48;101234.81;10510048;28;20043;-64
2024/01/12 22:24:42;;;;;;;13.43;5.07;;;;;;;0.93;62.31;101228.81;10527608;28;20044;-64
2024/01/12 22:29:44;;;;;;;12.40;5.15;;;;;;;0.91;62.50;101231.38;10527981;28;20048;-64
2024/01/12 22:34:46;;;;;;;13.90;5.30;;;;;;;0.85;62.57;101227.97;10526834;28;20036;-64
2024/01/12 22:39:48;;;;;;;10.73;5.03;;;;;;;0.83;62.80;101225.38;10521294;28;20051;-65
2024/01/12 22:44:50;;;;;;;11.75;5.18;;;;;;;0.93;62.70;101214.19;10524343;28;20114;-64
2024/01/12 22:49:53;;;;;;;10.10;4.63;;;;;;;0.99;62.38;101211.63;10525068;28;20097;-64
2024/01/12 22:54:54;;;;;;;15.93;5.32;;;;;;;1.05;62.35;101210.78;10518916;28;20097;-64
2024/01/12 22:59:56;;;;;;;14.43;5.15;;;;;;;1.06;62.14;101202.19;10524993;28;20134;-64
2024/01/12 23:04:58;;;;;;;10.52;5.00;;;;;;;0.98;62.39;101197.03;10523133;28;20048;-64
2024/01/12 23:10:02;;;;;;;11.45;4.85;;;;;;;0.79;62.95;101205.63;10523902;28;20545;-64